createdAt,value
2022-11-05T00:02:38.445Z,6.00
2022-11-05T00:05:25.624Z,5.95
2022-11-05T00:08:13.625Z,5.92
2022-11-05T00:10:42.765Z,5.90
2022-11-05T00:13:31.360Z,5.87
2022-11-05T00:16:20.155Z,5.83
2022-11-05T00:19:07.479Z,5.81
2022-11-05T00:22:01.456Z,5.75
2022-11-05T00:24:49.999Z,5.70
2022-11-05T00:27:19.166Z,5.64
2022-11-05T00:29:48.226Z,5.56
2022-11-05T00:32:18.902Z,5.59
2022-11-05T00:34:51.576Z,5.56
2022-11-05T00:37:23.356Z,5.51
2022-11-05T00:39:54.940Z,5.48
2022-11-05T00:42:41.541Z,5.44
2022-11-05T00:45:12.834Z,5.43
2022-11-05T00:48:00.744Z,5.39
2022-11-05T00:50:31.663Z,5.37
2022-11-05T00:53:05.779Z,5.35
2022-11-05T00:55:53.567Z,5.32
2022-11-05T00:58:31.669Z,5.32
2022-11-05T01:01:22.494Z,5.27
2022-11-05T01:03:56.648Z,5.26
2022-11-05T01:06:27.071Z,5.23
2022-11-05T01:08:57.806Z,5.21
2022-11-05T01:11:35.738Z,5.19
2022-11-05T01:14:16.970Z,5.17
2022-11-05T01:16:52.459Z,5.14
2022-11-05T01:19:29.525Z,5.11
2022-11-05T01:21:58.897Z,5.11
2022-11-05T01:24:30.345Z,5.08
2022-11-05T01:26:59.048Z,5.04
2022-11-05T01:29:28.304Z,5.00
2022-11-05T01:31:57.758Z,4.96
2022-11-05T01:34:27.882Z,4.94
2022-11-05T01:36:56.600Z,4.89
2022-11-05T01:39:27.200Z,4.86
2022-11-05T01:42:02.169Z,4.83
2022-11-05T01:44:52.265Z,4.80
2022-11-05T01:47:30.128Z,4.77
2022-11-05T01:50:20.727Z,4.74
2022-11-05T01:52:50.986Z,4.73
2022-11-05T01:55:27.364Z,4.70
2022-11-05T01:58:14.639Z,4.70
2022-11-05T02:00:47.220Z,4.68
2022-11-05T02:03:24.330Z,4.68
2022-11-05T02:06:11.852Z,4.67
2022-11-05T02:09:11.907Z,4.65
2022-11-05T02:11:42.398Z,4.63
2022-11-05T02:14:10.566Z,4.63
2022-11-05T02:17:11.177Z,4.62
2022-11-05T02:20:39.049Z,4.60
2022-11-05T02:23:05.918Z,4.58
2022-11-05T02:26:13.204Z,4.59
2022-11-05T02:29:04.816Z,4.60
2022-11-05T02:32:20.390Z,4.59
2022-11-05T02:35:27.774Z,4.59
2022-11-05T02:38:14.021Z,4.59
2022-11-05T02:41:14.675Z,4.59
2022-11-05T02:44:18.008Z,4.60
2022-11-05T02:47:07.858Z,4.59
2022-11-05T02:49:51.045Z,4.58
2022-11-05T02:53:04.142Z,4.59
2022-11-05T02:56:05.110Z,4.60
2022-11-05T02:58:42.850Z,4.61
2022-11-05T03:01:31.588Z,4.60
2022-11-05T03:04:03.754Z,4.60
2022-11-05T03:07:08.613Z,4.61
2022-11-05T03:09:56.090Z,4.61
2022-11-05T03:12:52.029Z,4.61
2022-11-05T03:15:45.372Z,4.61
2022-11-05T03:18:32.726Z,4.59
2022-11-05T03:21:40.853Z,4.58
2022-11-05T03:24:45.884Z,4.58
2022-11-05T03:27:24.558Z,4.58
2022-11-05T03:30:16.843Z,4.58
2022-11-05T03:33:27.532Z,4.58
2022-11-05T03:36:09.821Z,4.60
2022-11-05T03:38:45.502Z,4.61
2022-11-05T03:41:15.608Z,4.60
2022-11-05T03:43:49.440Z,4.60
2022-11-05T03:46:35.536Z,4.58
2022-11-05T03:49:07.774Z,4.59
2022-11-05T03:51:55.755Z,4.57
2022-11-05T03:54:24.039Z,4.57
2022-11-05T03:57:02.691Z,4.55
2022-11-05T04:00:01.624Z,4.55
2022-11-05T04:02:32.511Z,4.53
2022-11-05T04:05:02.789Z,4.53
2022-11-05T04:07:52.325Z,4.51
2022-11-05T04:10:40.487Z,4.48
2022-11-05T04:13:25.365Z,4.46
2022-11-05T04:16:31.138Z,4.46
2022-11-05T04:18:57.977Z,4.43
2022-11-05T04:21:50.181Z,4.41
2022-11-05T04:24:19.910Z,4.38
2022-11-05T04:26:49.882Z,4.35
2022-11-05T04:29:39.348Z,4.20
2022-11-05T04:32:08.048Z,4.31
2022-11-05T04:34:42.725Z,4.31
2022-11-05T04:37:11.700Z,4.28
2022-11-05T04:39:41.562Z,4.25
2022-11-05T04:42:10.325Z,4.23
2022-11-05T04:44:42.948Z,4.22
2022-11-05T04:47:22.614Z,4.20
2022-11-05T04:49:51.484Z,4.17
2022-11-05T04:52:20.591Z,4.14
2022-11-05T04:54:49.292Z,4.11
2022-11-05T04:57:18.832Z,4.08
2022-11-05T04:59:51.161Z,4.09
2022-11-05T05:02:19.324Z,4.07
2022-11-05T05:04:48.169Z,4.05
2022-11-05T05:07:22.319Z,4.04
2022-11-05T05:09:52.457Z,4.00
2022-11-05T05:12:41.969Z,4.00
2022-11-05T05:15:18.431Z,3.98
2022-11-05T05:17:57.481Z,3.93
2022-11-05T05:20:49.592Z,3.90
2022-11-05T05:23:17.553Z,3.87
2022-11-05T05:25:48.772Z,3.83
2022-11-05T05:28:17.558Z,3.80
2022-11-05T05:30:44.351Z,3.82
2022-11-05T05:33:11.389Z,3.82
2022-11-05T05:35:38.435Z,3.78
2022-11-05T05:38:05.324Z,3.65
2022-11-05T05:40:32.203Z,3.73
2022-11-05T05:42:59.099Z,3.72
2022-11-05T05:45:25.939Z,3.72
2022-11-05T05:47:55.817Z,3.67
2022-11-05T05:50:22.815Z,3.66
2022-11-05T05:52:49.679Z,3.64
2022-11-05T05:55:16.656Z,3.65
2022-11-05T05:57:43.561Z,3.60
2022-11-05T06:00:11.036Z,3.61
2022-11-05T06:02:38.023Z,3.54
2022-11-05T06:05:05.544Z,3.56
2022-11-05T06:07:37.086Z,3.54
2022-11-05T06:10:06.176Z,3.53
2022-11-05T06:12:33.486Z,3.51
2022-11-05T06:15:00.401Z,3.44
2022-11-05T06:17:27.379Z,3.46
2022-11-05T06:19:54.268Z,3.45
2022-11-05T06:22:21.145Z,3.44
2022-11-05T06:24:48.056Z,3.42
2022-11-05T06:27:14.840Z,3.40
2022-11-05T06:29:41.716Z,3.41
2022-11-05T06:32:08.593Z,3.38
2022-11-05T06:34:36.861Z,3.31
2022-11-05T06:37:03.761Z,3.34
2022-11-05T06:39:30.653Z,3.35
2022-11-05T06:42:17.507Z,3.30
2022-11-05T06:44:44.498Z,3.31
2022-11-05T06:47:11.842Z,3.31
2022-11-05T06:49:38.738Z,3.28
2022-11-05T06:52:05.654Z,3.27
2022-11-05T06:54:32.585Z,3.23
2022-11-05T06:56:59.460Z,3.21
2022-11-05T06:59:26.302Z,3.23
2022-11-05T07:01:53.309Z,3.24
2022-11-05T07:04:20.178Z,3.25
2022-11-05T07:06:47.148Z,3.21
2022-11-05T07:09:14.030Z,3.23
2022-11-05T07:11:40.931Z,3.25
2022-11-05T07:14:08.060Z,3.23
2022-11-05T07:16:35.004Z,3.24
2022-11-05T07:19:01.978Z,3.23
2022-11-05T07:21:29.033Z,3.20
2022-11-05T07:23:55.899Z,3.22
2022-11-05T07:26:22.848Z,3.27
2022-11-05T07:28:49.735Z,3.28
2022-11-05T07:31:16.569Z,3.25
2022-11-05T07:33:43.443Z,3.28
2022-11-05T07:36:10.223Z,3.34
2022-11-05T07:38:37.104Z,3.27
2022-11-05T07:41:04.107Z,3.33
2022-11-05T07:43:31.104Z,3.39
2022-11-05T07:45:58.106Z,3.36
2022-11-05T07:48:28.073Z,3.40
2022-11-05T07:50:54.937Z,3.41
2022-11-05T07:53:21.782Z,3.44
2022-11-05T07:55:48.784Z,3.46
2022-11-05T07:58:15.634Z,3.44
2022-11-05T08:00:42.665Z,3.46
2022-11-05T08:03:15.288Z,3.52
2022-11-05T08:05:44.816Z,3.54
2022-11-05T08:08:17.349Z,3.54
2022-11-05T08:10:44.756Z,3.57
2022-11-05T08:13:12.891Z,3.57
2022-11-05T08:15:40.968Z,3.60
2022-11-05T08:18:12.487Z,3.62
2022-11-05T08:20:41.269Z,3.64
2022-11-05T08:23:08.452Z,3.67
2022-11-05T08:25:35.992Z,3.73
2022-11-05T08:28:08.184Z,3.75
2022-11-05T08:30:35.584Z,3.83
2022-11-05T08:33:08.346Z,3.86
2022-11-05T08:35:37.068Z,3.92
2022-11-05T08:38:06.026Z,3.98
2022-11-05T08:40:35.119Z,4.03
2022-11-05T08:43:04.264Z,4.08
2022-11-05T08:45:31.572Z,4.11
2022-11-05T08:48:07.636Z,4.20
2022-11-05T08:50:34.863Z,4.28
2022-11-05T08:53:01.807Z,4.30
2022-11-05T08:55:29.332Z,4.37
2022-11-05T08:58:04.215Z,4.46
2022-11-05T09:00:33.736Z,4.54
2022-11-05T09:03:02.314Z,4.62
2022-11-05T09:05:31.138Z,4.67
2022-11-05T09:08:01.206Z,4.76
2022-11-05T09:10:28.651Z,4.79
2022-11-05T09:12:55.899Z,4.89
2022-11-05T09:15:23.470Z,4.91
2022-11-05T09:17:50.787Z,5.05
2022-11-05T09:20:17.820Z,5.11
2022-11-05T09:22:49.272Z,5.17
2022-11-05T09:25:16.635Z,5.19
2022-11-05T09:27:44.115Z,5.31
2022-11-05T09:30:13.028Z,5.37
2022-11-05T09:32:40.682Z,5.43
2022-11-05T09:35:09.042Z,5.50
2022-11-05T09:37:36.682Z,5.57
2022-11-05T09:40:04.405Z,5.59
2022-11-05T09:42:47.080Z,5.66
2022-11-05T09:45:21.285Z,5.74
2022-11-05T09:48:01.594Z,5.81
2022-11-05T09:50:44.367Z,5.87
2022-11-05T09:53:16.423Z,5.89
2022-11-05T09:55:48.074Z,5.95
2022-11-05T09:58:25.919Z,6.02
2022-11-05T10:00:56.672Z,6.08
2022-11-05T10:03:25.602Z,6.11
2022-11-05T10:05:54.606Z,6.16
2022-11-05T10:08:32.761Z,6.22
2022-11-05T10:11:07.332Z,6.28
2022-11-05T10:13:45.143Z,6.30
2022-11-05T10:16:34.065Z,6.36
2022-11-05T10:19:24.550Z,6.39
2022-11-05T10:22:13.584Z,6.43
2022-11-05T10:24:46.365Z,6.42
2022-11-05T10:27:18.379Z,6.51
2022-11-05T10:29:46.676Z,6.54
2022-11-05T10:32:21.829Z,6.57
2022-11-05T10:34:50.485Z,6.63
2022-11-05T10:37:18.515Z,6.63
2022-11-05T10:39:45.467Z,6.66
2022-11-05T10:42:34.945Z,6.69
2022-11-05T10:45:53.034Z,6.75
2022-11-05T10:48:50.543Z,6.76
2022-11-05T10:51:18.502Z,6.77
2022-11-05T10:54:00.490Z,6.79
2022-11-05T10:56:39.594Z,6.78
2022-11-05T10:59:21.044Z,6.84
2022-11-05T11:01:48.152Z,6.85
2022-11-05T11:04:24.455Z,6.85
2022-11-05T11:06:54.677Z,6.88
2022-11-05T11:09:31.475Z,6.91
2022-11-05T11:12:24.287Z,6.91
2022-11-05T11:15:28.244Z,6.95
2022-11-05T11:17:56.260Z,6.97
2022-11-05T11:20:31.334Z,6.97
2022-11-05T11:23:14.834Z,7.04
2022-11-05T11:26:01.932Z,7.06
2022-11-05T11:28:34.882Z,7.10
2022-11-05T11:31:07.796Z,7.14
2022-11-05T11:33:36.639Z,7.17
2022-11-05T11:36:05.003Z,7.22
2022-11-05T11:38:34.565Z,7.27
2022-11-05T11:41:22.343Z,7.30
2022-11-05T11:43:54.197Z,7.33
2022-11-05T11:46:21.412Z,7.36
2022-11-05T11:48:49.566Z,7.38
2022-11-05T11:51:49.786Z,7.42
2022-11-05T11:54:28.625Z,7.47
2022-11-05T11:56:56.317Z,7.48
2022-11-05T11:59:46.902Z,7.53
2022-11-05T12:02:15.998Z,7.60
2022-11-05T12:05:26.546Z,7.63
2022-11-05T12:08:11.512Z,7.67
2022-11-05T12:10:51.184Z,7.70
2022-11-05T12:13:20.854Z,7.72
2022-11-05T12:15:50.788Z,7.77
2022-11-05T12:18:29.238Z,7.78
2022-11-05T12:21:13.469Z,7.78
2022-11-05T12:23:49.723Z,7.81
2022-11-05T12:26:36.423Z,7.84
2022-11-05T12:29:32.860Z,7.87
2022-11-05T12:32:19.050Z,7.88
2022-11-05T12:35:14.648Z,7.91
2022-11-05T12:37:53.781Z,7.84
2022-11-05T12:40:32.784Z,7.94
2022-11-05T12:43:19.643Z,7.94
2022-11-05T12:45:55.649Z,7.96
2022-11-05T12:48:37.531Z,7.99
2022-11-05T12:51:34.155Z,8.03
2022-11-05T12:54:42.550Z,8.05
2022-11-05T12:57:13.000Z,8.05
2022-11-05T12:59:58.587Z,8.07
2022-11-05T13:03:03.111Z,8.10
2022-11-05T13:05:40.959Z,8.10
2022-11-05T13:08:13.907Z,8.14
2022-11-05T13:10:54.810Z,8.16
2022-11-05T13:13:33.529Z,8.16
2022-11-05T13:16:10.179Z,8.15
2022-11-05T13:18:52.793Z,8.19
2022-11-05T13:21:24.207Z,8.20
2022-11-05T13:24:09.749Z,8.21
2022-11-05T13:26:45.979Z,8.22
2022-11-05T13:29:18.769Z,8.24
2022-11-05T13:31:53.930Z,8.23
2022-11-05T13:34:20.909Z,8.25
2022-11-05T13:37:14.814Z,8.25
2022-11-05T13:39:50.076Z,8.24
2022-11-05T13:42:35.657Z,8.27
2022-11-05T13:45:11.467Z,8.27
2022-11-05T13:47:50.665Z,8.27
2022-11-05T13:51:05.485Z,8.29
2022-11-05T13:53:54.030Z,8.29
2022-11-05T13:56:33.751Z,8.25
2022-11-05T13:59:27.988Z,8.27
2022-11-05T14:01:58.890Z,8.27
2022-11-05T14:04:41.208Z,8.25
2022-11-05T14:07:09.907Z,8.26
2022-11-05T14:09:39.684Z,8.25
2022-11-05T14:12:18.836Z,8.26
2022-11-05T14:14:53.278Z,8.28
2022-11-05T14:17:33.977Z,8.28
2022-11-05T14:20:06.508Z,8.28
2022-11-05T14:22:33.354Z,8.28
2022-11-05T14:25:02.256Z,8.28
2022-11-05T14:27:29.100Z,8.28
2022-11-05T14:29:56.121Z,8.27
2022-11-05T14:32:25.754Z,8.29
2022-11-05T14:35:21.124Z,8.30
2022-11-05T14:37:56.327Z,8.28
2022-11-05T14:40:29.098Z,8.28
2022-11-05T14:43:19.939Z,8.30
2022-11-05T14:46:00.826Z,8.30
2022-11-05T14:48:30.632Z,8.28
2022-11-05T14:50:57.602Z,8.28
2022-11-05T14:53:33.369Z,8.26
2022-11-05T14:56:09.250Z,8.28
2022-11-05T14:58:40.617Z,8.26
2022-11-05T15:01:13.540Z,8.27
2022-11-05T15:03:45.798Z,8.27
2022-11-05T15:06:35.247Z,8.28
2022-11-05T15:09:40.368Z,8.29
2022-11-05T15:12:13.809Z,8.28
2022-11-05T15:14:53.015Z,8.25
2022-11-05T15:17:29.650Z,8.24
2022-11-05T15:20:06.834Z,8.25
2022-11-05T15:22:37.868Z,8.24
2022-11-05T15:25:14.458Z,8.25
2022-11-05T15:27:46.970Z,8.19
2022-11-05T15:30:22.603Z,8.25
2022-11-05T15:32:50.041Z,8.21
2022-11-05T15:35:28.527Z,8.20
2022-11-05T15:38:02.167Z,8.22
2022-11-05T15:40:32.408Z,8.19
2022-11-05T15:43:20.994Z,8.15
2022-11-05T15:46:05.458Z,8.18
2022-11-05T15:48:33.609Z,8.19
2022-11-05T15:51:01.218Z,8.15
2022-11-05T15:54:28.959Z,8.17
2022-11-05T15:56:38.704Z,8.16
2022-11-05T15:59:15.129Z,8.12
2022-11-05T16:01:51.260Z,8.14
2022-11-05T16:04:36.307Z,8.12
2022-11-05T16:07:12.080Z,8.12
2022-11-05T16:09:43.653Z,8.12
2022-11-05T16:12:19.727Z,8.12
2022-11-05T16:15:06.259Z,8.11
2022-11-05T16:17:47.306Z,8.08
2022-11-05T16:20:20.056Z,8.10
2022-11-05T16:22:49.757Z,8.08
2022-11-05T16:25:42.637Z,8.08
2022-11-05T16:28:21.088Z,8.06
2022-11-05T16:31:02.255Z,8.06
2022-11-05T16:33:44.449Z,8.06
2022-11-05T16:36:12.045Z,8.05
2022-11-05T16:38:39.058Z,8.06
2022-11-05T16:41:06.128Z,8.06
2022-11-05T16:43:33.513Z,8.03
2022-11-05T16:46:01.500Z,8.05
2022-11-05T16:48:28.713Z,8.04
2022-11-05T16:50:58.423Z,8.05
2022-11-05T16:53:25.358Z,8.04
2022-11-05T16:55:52.316Z,8.03
2022-11-05T16:58:25.029Z,8.01
2022-11-05T17:00:54.840Z,8.01
2022-11-05T17:03:21.695Z,8.01
2022-11-05T17:05:48.720Z,7.98
2022-11-05T17:08:15.839Z,7.96
2022-11-05T17:10:43.075Z,7.96
2022-11-05T17:13:14.784Z,7.96
2022-11-05T17:15:43.744Z,7.96
2022-11-05T17:18:17.924Z,7.96
2022-11-05T17:20:54.678Z,7.96
2022-11-05T17:23:24.259Z,7.93
2022-11-05T17:25:53.592Z,7.92
2022-11-05T17:28:21.062Z,7.94
2022-11-05T17:30:52.365Z,7.93
2022-11-05T17:33:21.571Z,7.90
2022-11-05T17:35:49.113Z,7.91
2022-11-05T17:38:16.389Z,7.89
2022-11-05T17:40:43.263Z,7.89
2022-11-05T17:43:10.558Z,7.88
2022-11-05T17:45:46.124Z,7.84
2022-11-05T17:48:16.536Z,7.88
2022-11-05T17:50:44.858Z,7.85
2022-11-05T17:53:13.466Z,7.85
2022-11-05T17:55:42.401Z,7.84
2022-11-05T17:58:09.909Z,7.84
2022-11-05T18:00:37.290Z,7.83
2022-11-05T18:03:04.739Z,7.81
2022-11-05T18:05:31.763Z,7.81
2022-11-05T18:07:58.938Z,7.78
2022-11-05T18:10:29.055Z,7.78
2022-11-05T18:12:56.056Z,7.76
2022-11-05T18:15:23.065Z,7.75
2022-11-05T18:17:49.960Z,7.76
2022-11-05T18:20:19.372Z,7.75
2022-11-05T18:22:50.092Z,7.72
2022-11-05T18:25:17.873Z,7.73
2022-11-05T18:27:45.208Z,7.74
2022-11-05T18:30:15.468Z,7.72
2022-11-05T18:32:44.300Z,7.70
2022-11-05T18:35:13.207Z,7.70
2022-11-05T18:37:40.836Z,7.69
2022-11-05T18:40:11.788Z,7.67
2022-11-05T18:42:38.771Z,7.68
2022-11-05T18:45:07.114Z,7.67
2022-11-05T18:47:34.453Z,7.64
2022-11-05T18:50:02.186Z,7.64
2022-11-05T18:52:31.583Z,7.63
2022-11-05T18:54:59.484Z,7.65
2022-11-05T18:57:27.497Z,7.65
2022-11-05T18:59:54.336Z,7.63
2022-11-05T19:02:21.275Z,7.61
2022-11-05T19:05:13.835Z,7.57
2022-11-05T19:07:38.854Z,7.55
2022-11-05T19:10:06.618Z,7.55
2022-11-05T19:12:33.542Z,7.52
2022-11-05T19:15:02.674Z,7.51
2022-11-05T19:17:32.909Z,7.49
2022-11-05T19:19:59.774Z,7.48
2022-11-05T19:22:27.103Z,7.48
2022-11-05T19:24:54.063Z,7.48
2022-11-05T19:27:20.925Z,7.48
2022-11-05T19:29:47.844Z,7.44
2022-11-05T19:32:15.192Z,7.44
2022-11-05T19:34:42.048Z,7.37
2022-11-05T19:37:09.045Z,7.40
2022-11-05T19:39:36.219Z,7.41
2022-11-05T19:42:04.009Z,7.34
2022-11-05T19:44:32.019Z,7.39
2022-11-05T19:46:58.963Z,7.35
2022-11-05T19:49:28.097Z,7.37
2022-11-05T19:51:55.501Z,7.41
2022-11-05T19:54:22.349Z,7.41
2022-11-05T19:56:51.852Z,7.44
2022-11-05T19:59:19.121Z,7.45
2022-11-05T20:01:46.164Z,7.46
2022-11-05T20:04:13.094Z,7.44
2022-11-05T20:06:40.772Z,7.46
2022-11-05T20:09:27.138Z,7.48
2022-11-05T20:11:56.391Z,7.47
2022-11-05T20:14:25.224Z,7.47
2022-11-05T20:16:53.027Z,7.49
2022-11-05T20:19:21.963Z,7.47
2022-11-05T20:21:49.161Z,7.48
2022-11-05T20:24:23.684Z,7.50
2022-11-05T20:26:55.258Z,7.48
2022-11-05T20:29:23.305Z,7.49
2022-11-05T20:31:52.407Z,7.48
2022-11-05T20:34:19.168Z,7.46
2022-11-05T20:36:46.024Z,7.46
2022-11-05T20:39:16.626Z,7.48
2022-11-05T20:41:43.879Z,7.47
2022-11-05T20:44:10.773Z,7.44
2022-11-05T20:46:37.958Z,7.46
2022-11-05T20:49:04.890Z,7.42
2022-11-05T20:51:31.735Z,7.44
2022-11-05T20:54:00.634Z,7.45
2022-11-05T20:56:29.934Z,7.44
2022-11-05T20:58:58.730Z,7.41
2022-11-05T21:01:30.845Z,7.43
2022-11-05T21:03:57.852Z,7.43
2022-11-05T21:06:24.795Z,7.42
2022-11-05T21:08:52.715Z,7.41
2022-11-05T21:11:20.322Z,7.42
2022-11-05T21:13:47.827Z,7.39
2022-11-05T21:16:18.461Z,7.42
2022-11-05T21:18:46.704Z,7.41
2022-11-05T21:21:17.804Z,7.38
2022-11-05T21:23:44.660Z,7.36
2022-11-05T21:26:17.974Z,7.38
2022-11-05T21:28:45.286Z,7.37
2022-11-05T21:31:14.374Z,7.37
2022-11-05T21:33:41.232Z,7.35
2022-11-05T21:36:11.280Z,7.34
2022-11-05T21:38:41.755Z,7.33
2022-11-05T21:41:15.856Z,7.31
2022-11-05T21:43:42.865Z,7.30
2022-11-05T21:46:16.985Z,7.29
2022-11-05T21:48:43.837Z,7.30
2022-11-05T21:51:31.903Z,7.27
2022-11-05T21:54:17.883Z,7.25
2022-11-05T21:57:10.707Z,7.21
2022-11-05T21:59:51.689Z,7.20
2022-11-05T22:02:21.353Z,7.20
2022-11-05T22:04:54.985Z,7.21
2022-11-05T22:07:34.241Z,7.20
2022-11-05T22:10:16.088Z,7.18
2022-11-05T22:12:47.874Z,7.15
2022-11-05T22:15:18.921Z,7.17
2022-11-05T22:17:47.428Z,7.14
2022-11-05T22:20:22.091Z,7.14
2022-11-05T22:22:51.346Z,7.11
2022-11-05T22:25:22.362Z,7.10
2022-11-05T22:27:49.214Z,7.11
2022-11-05T22:30:25.247Z,7.09
2022-11-05T22:32:52.087Z,7.07
2022-11-05T22:35:18.920Z,7.08
2022-11-05T22:37:46.504Z,7.07
2022-11-05T22:40:16.654Z,7.06
2022-11-05T22:42:43.675Z,7.02
2022-11-05T22:45:10.781Z,6.94
2022-11-05T22:47:37.779Z,6.96
2022-11-05T22:50:05.255Z,6.98
2022-11-05T22:52:32.734Z,6.92
2022-11-05T22:55:09.090Z,6.90
2022-11-05T22:57:35.973Z,6.93
2022-11-05T23:00:12.383Z,6.94
2022-11-05T23:02:46.931Z,6.94
2022-11-05T23:05:15.822Z,6.93
2022-11-05T23:08:18.038Z,6.91
2022-11-05T23:11:03.643Z,6.91
2022-11-05T23:13:30.596Z,6.88
2022-11-05T23:16:16.018Z,6.86
2022-11-05T23:19:01.105Z,6.82
2022-11-05T23:21:46.783Z,6.79
2022-11-05T23:24:15.378Z,6.82
2022-11-05T23:26:51.131Z,6.77
2022-11-05T23:29:53.338Z,6.78
2022-11-05T23:32:26.233Z,6.76
2022-11-05T23:34:59.951Z,6.73
2022-11-05T23:37:52.823Z,6.75
2022-11-05T23:40:26.929Z,6.72
2022-11-05T23:43:12.798Z,6.74
2022-11-05T23:46:06.091Z,6.74
2022-11-05T23:48:54.695Z,6.73
2022-11-05T23:51:27.565Z,6.72
2022-11-05T23:53:54.358Z,6.71
2022-11-05T23:56:31.524Z,6.70
2022-11-05T23:58:58.476Z,6.68
